sensor_id;sensor_type;location;lat;lon;timestamp;P1;durP1;ratioP1;P2;durP2;ratioP2
76284;SDS011;71676;50.998;7.098;2023-07-29T00:00:55;2.92;;;1.40;;
76284;SDS011;71676;50.998;7.098;2023-07-29T00:03:22;4.00;;;1.30;;
76284;SDS011;71676;50.998;7.098;2023-07-29T00:05:49;2.83;;;1.60;;
76284;SDS011;71676;50.998;7.098;2023-07-29T00:08:15;4.30;;;1.58;;
76284;SDS011;71676;50.998;7.098;2023-07-29T00:10:43;5.05;;;1.90;;
76284;SDS011;71676;50.998;7.098;2023-07-29T00:13:11;3.03;;;1.58;;
76284;SDS011;71676;50.998;7.098;2023-07-29T00:15:37;3.13;;;1.35;;
76284;SDS011;71676;50.998;7.098;2023-07-29T00:18:04;4.47;;;1.80;;
76284;SDS011;71676;50.998;7.098;2023-07-29T00:20:31;2.63;;;1.70;;
76284;SDS011;71676;50.998;7.098;2023-07-29T00:22:57;2.53;;;1.60;;
76284;SDS011;71676;50.998;7.098;2023-07-29T00:25:24;4.22;;;1.60;;
76284;SDS011;71676;50.998;7.098;2023-07-29T00:27:51;4.28;;;1.75;;
76284;SDS011;71676;50.998;7.098;2023-07-29T00:30:19;4.22;;;1.70;;
76284;SDS011;71676;50.998;7.098;2023-07-29T00:32:46;3.95;;;1.55;;
76284;SDS011;71676;50.998;7.098;2023-07-29T00:35:12;3.72;;;1.60;;
76284;SDS011;71676;50.998;7.098;2023-07-29T00:37:39;3.15;;;1.60;;
76284;SDS011;71676;50.998;7.098;2023-07-29T00:40:07;3.60;;;1.90;;
76284;SDS011;71676;50.998;7.098;2023-07-29T00:42:41;3.33;;;1.70;;
76284;SDS011;71676;50.998;7.098;2023-07-29T00:45:08;4.15;;;1.70;;
76284;SDS011;71676;50.998;7.098;2023-07-29T00:47:36;3.63;;;1.65;;
76284;SDS011;71676;50.998;7.098;2023-07-29T00:50:03;5.75;;;1.88;;
76284;SDS011;71676;50.998;7.098;2023-07-29T00:52:32;6.20;;;1.95;;
76284;SDS011;71676;50.998;7.098;2023-07-29T00:54:58;2.95;;;1.70;;
76284;SDS011;71676;50.998;7.098;2023-07-29T00:57:25;4.35;;;2.13;;
76284;SDS011;71676;50.998;7.098;2023-07-29T00:59:53;2.80;;;1.65;;
76284;SDS011;71676;50.998;7.098;2023-07-29T01:02:20;4.15;;;1.83;;
76284;SDS011;71676;50.998;7.098;2023-07-29T01:04:52;3.13;;;1.88;;
76284;SDS011;71676;50.998;7.098;2023-07-29T01:07:21;3.40;;;1.80;;
76284;SDS011;71676;50.998;7.098;2023-07-29T01:09:56;4.95;;;2.47;;
76284;SDS011;71676;50.998;7.098;2023-07-29T01:12:29;3.97;;;2.17;;
76284;SDS011;71676;50.998;7.098;2023-07-29T01:15:09;2.92;;;1.83;;
76284;SDS011;71676;50.998;7.098;2023-07-29T01:17:42;3.95;;;2.13;;
76284;SDS011;71676;50.998;7.098;2023-07-29T01:20:14;4.32;;;1.90;;
76284;SDS011;71676;50.998;7.098;2023-07-29T01:22:42;3.60;;;2.00;;
76284;SDS011;71676;50.998;7.098;2023-07-29T01:25:11;3.35;;;1.90;;
76284;SDS011;71676;50.998;7.098;2023-07-29T01:27:38;4.20;;;2.10;;
76284;SDS011;71676;50.998;7.098;2023-07-29T01:30:05;4.88;;;2.00;;
76284;SDS011;71676;50.998;7.098;2023-07-29T01:32:35;4.25;;;2.03;;
76284;SDS011;71676;50.998;7.098;2023-07-29T01:35:11;5.10;;;1.83;;
76284;SDS011;71676;50.998;7.098;2023-07-29T01:40:16;3.65;;;1.92;;
76284;SDS011;71676;50.998;7.098;2023-07-29T01:42:44;3.70;;;2.05;;
76284;SDS011;71676;50.998;7.098;2023-07-29T01:45:11;4.20;;;1.92;;
76284;SDS011;71676;50.998;7.098;2023-07-29T01:47:38;3.53;;;1.75;;
76284;SDS011;71676;50.998;7.098;2023-07-29T01:50:07;2.80;;;1.67;;
76284;SDS011;71676;50.998;7.098;2023-07-29T01:52:34;4.57;;;2.08;;
76284;SDS011;71676;50.998;7.098;2023-07-29T01:55:00;5.30;;;2.30;;
76284;SDS011;71676;50.998;7.098;2023-07-29T01:57:28;5.05;;;2.13;;
76284;SDS011;71676;50.998;7.098;2023-07-29T01:59:55;3.45;;;1.90;;
76284;SDS011;71676;50.998;7.098;2023-07-29T02:02:22;6.18;;;2.30;;
76284;SDS011;71676;50.998;7.098;2023-07-29T02:04:48;7.25;;;2.45;;
76284;SDS011;71676;50.998;7.098;2023-07-29T02:07:17;3.88;;;2.03;;
76284;SDS011;71676;50.998;7.098;2023-07-29T02:09:44;5.65;;;2.13;;
76284;SDS011;71676;50.998;7.098;2023-07-29T02:12:10;5.15;;;2.40;;
76284;SDS011;71676;50.998;7.098;2023-07-29T02:14:38;5.32;;;2.20;;
76284;SDS011;71676;50.998;7.098;2023-07-29T02:17:05;4.78;;;2.30;;
76284;SDS011;71676;50.998;7.098;2023-07-29T02:19:31;5.18;;;2.58;;
76284;SDS011;71676;50.998;7.098;2023-07-29T02:21:58;5.55;;;2.67;;
76284;SDS011;71676;50.998;7.098;2023-07-29T02:24:25;5.53;;;2.38;;
76284;SDS011;71676;50.998;7.098;2023-07-29T02:26:51;6.63;;;2.67;;
76284;SDS011;71676;50.998;7.098;2023-07-29T02:29:18;5.55;;;2.75;;
76284;SDS011;71676;50.998;7.098;2023-07-29T02:31:46;5.32;;;2.35;;
76284;SDS011;71676;50.998;7.098;2023-07-29T02:34:12;5.53;;;2.42;;
76284;SDS011;71676;50.998;7.098;2023-07-29T02:36:39;5.20;;;2.35;;
76284;SDS011;71676;50.998;7.098;2023-07-29T02:39:06;4.40;;;2.33;;
76284;SDS011;71676;50.998;7.098;2023-07-29T02:41:32;4.47;;;2.35;;
76284;SDS011;71676;50.998;7.098;2023-07-29T02:43:59;4.25;;;2.20;;
76284;SDS011;71676;50.998;7.098;2023-07-29T02:46:27;4.28;;;2.15;;
76284;SDS011;71676;50.998;7.098;2023-07-29T02:48:55;4.15;;;1.95;;
76284;SDS011;71676;50.998;7.098;2023-07-29T02:51:22;4.03;;;2.17;;
76284;SDS011;71676;50.998;7.098;2023-07-29T02:53:48;4.80;;;2.20;;
76284;SDS011;71676;50.998;7.098;2023-07-29T02:56:15;4.82;;;2.20;;
76284;SDS011;71676;50.998;7.098;2023-07-29T02:58:41;4.60;;;2.05;;
76284;SDS011;71676;50.998;7.098;2023-07-29T03:01:08;3.70;;;2.05;;
76284;SDS011;71676;50.998;7.098;2023-07-29T03:03:35;4.75;;;2.00;;
76284;SDS011;71676;50.998;7.098;2023-07-29T03:06:04;5.13;;;2.13;;
76284;SDS011;71676;50.998;7.098;2023-07-29T03:08:32;4.80;;;1.98;;
76284;SDS011;71676;50.998;7.098;2023-07-29T03:11:04;4.03;;;2.05;;
76284;SDS011;71676;50.998;7.098;2023-07-29T03:13:31;4.43;;;2.03;;
76284;SDS011;71676;50.998;7.098;2023-07-29T03:16:04;5.07;;;2.00;;
76284;SDS011;71676;50.998;7.098;2023-07-29T03:18:31;4.45;;;2.13;;
76284;SDS011;71676;50.998;7.098;2023-07-29T03:20:58;5.40;;;2.22;;
76284;SDS011;71676;50.998;7.098;2023-07-29T03:23:27;5.00;;;1.75;;
76284;SDS011;71676;50.998;7.098;2023-07-29T03:25:54;4.68;;;2.42;;
76284;SDS011;71676;50.998;7.098;2023-07-29T03:28:23;3.33;;;1.85;;
76284;SDS011;71676;50.998;7.098;2023-07-29T03:30:49;5.63;;;2.20;;
76284;SDS011;71676;50.998;7.098;2023-07-29T03:33:16;4.88;;;2.35;;
76284;SDS011;71676;50.998;7.098;2023-07-29T03:35:43;7.63;;;2.60;;
76284;SDS011;71676;50.998;7.098;2023-07-29T03:38:09;5.47;;;2.60;;
76284;SDS011;71676;50.998;7.098;2023-07-29T03:40:37;5.43;;;2.67;;
76284;SDS011;71676;50.998;7.098;2023-07-29T03:43:04;5.93;;;2.72;;
76284;SDS011;71676;50.998;7.098;2023-07-29T03:45:31;6.32;;;2.78;;
76284;SDS011;71676;50.998;7.098;2023-07-29T03:48:00;5.60;;;2.60;;
76284;SDS011;71676;50.998;7.098;2023-07-29T03:50:27;6.15;;;2.72;;
76284;SDS011;71676;50.998;7.098;2023-07-29T03:52:54;5.25;;;2.55;;
76284;SDS011;71676;50.998;7.098;2023-07-29T03:55:21;5.78;;;2.97;;
76284;SDS011;71676;50.998;7.098;2023-07-29T03:57:49;6.45;;;3.00;;
76284;SDS011;71676;50.998;7.098;2023-07-29T04:00:15;5.55;;;2.40;;
76284;SDS011;71676;50.998;7.098;2023-07-29T04:02:42;5.88;;;2.70;;
76284;SDS011;71676;50.998;7.098;2023-07-29T04:05:10;6.43;;;2.80;;
76284;SDS011;71676;50.998;7.098;2023-07-29T04:07:37;4.70;;;2.42;;
76284;SDS011;71676;50.998;7.098;2023-07-29T04:10:05;6.68;;;2.80;;
76284;SDS011;71676;50.998;7.098;2023-07-29T04:12:32;5.30;;;2.47;;
76284;SDS011;71676;50.998;7.098;2023-07-29T04:15:01;5.78;;;2.75;;
76284;SDS011;71676;50.998;7.098;2023-07-29T04:17:27;5.85;;;2.47;;
76284;SDS011;71676;50.998;7.098;2023-07-29T04:19:54;6.30;;;3.15;;
76284;SDS011;71676;50.998;7.098;2023-07-29T04:22:20;5.80;;;2.70;;
76284;SDS011;71676;50.998;7.098;2023-07-29T04:24:47;5.10;;;2.20;;
76284;SDS011;71676;50.998;7.098;2023-07-29T04:27:14;6.45;;;3.00;;
76284;SDS011;71676;50.998;7.098;2023-07-29T04:29:40;4.68;;;2.30;;
76284;SDS011;71676;50.998;7.098;2023-07-29T04:32:08;5.63;;;2.63;;
76284;SDS011;71676;50.998;7.098;2023-07-29T04:34:35;6.03;;;2.50;;
76284;SDS011;71676;50.998;7.098;2023-07-29T04:37:02;4.88;;;2.08;;
76284;SDS011;71676;50.998;7.098;2023-07-29T04:39:28;6.93;;;2.55;;
76284;SDS011;71676;50.998;7.098;2023-07-29T04:41:55;5.85;;;2.70;;
76284;SDS011;71676;50.998;7.098;2023-07-29T04:44:22;4.85;;;2.40;;
76284;SDS011;71676;50.998;7.098;2023-07-29T04:46:49;6.15;;;2.47;;
76284;SDS011;71676;50.998;7.098;2023-07-29T04:49:17;4.50;;;2.20;;
76284;SDS011;71676;50.998;7.098;2023-07-29T04:51:43;4.72;;;2.15;;
76284;SDS011;71676;50.998;7.098;2023-07-29T04:54:17;5.05;;;2.33;;
76284;SDS011;71676;50.998;7.098;2023-07-29T04:56:45;4.80;;;2.45;;
76284;SDS011;71676;50.998;7.098;2023-07-29T04:59:12;6.50;;;2.40;;
76284;SDS011;71676;50.998;7.098;2023-07-29T05:01:39;6.80;;;2.80;;
76284;SDS011;71676;50.998;7.098;2023-07-29T05:04:07;6.10;;;2.60;;
76284;SDS011;71676;50.998;7.098;2023-07-29T05:06:35;6.43;;;2.50;;
76284;SDS011;71676;50.998;7.098;2023-07-29T05:09:12;4.85;;;2.40;;
76284;SDS011;71676;50.998;7.098;2023-07-29T05:11:39;4.82;;;2.45;;
76284;SDS011;71676;50.998;7.098;2023-07-29T05:14:06;4.55;;;2.33;;
76284;SDS011;71676;50.998;7.098;2023-07-29T05:16:34;5.50;;;2.63;;
76284;SDS011;71676;50.998;7.098;2023-07-29T05:19:00;4.90;;;2.63;;
76284;SDS011;71676;50.998;7.098;2023-07-29T05:21:27;5.40;;;2.50;;
76284;SDS011;71676;50.998;7.098;2023-07-29T05:23:55;5.43;;;2.50;;
76284;SDS011;71676;50.998;7.098;2023-07-29T05:26:21;5.60;;;2.55;;
76284;SDS011;71676;50.998;7.098;2023-07-29T05:28:48;4.18;;;2.30;;
76284;SDS011;71676;50.998;7.098;2023-07-29T05:31:15;5.50;;;2.55;;
76284;SDS011;71676;50.998;7.098;2023-07-29T05:33:41;8.82;;;2.50;;
76284;SDS011;71676;50.998;7.098;2023-07-29T05:36:08;5.47;;;2.70;;
76284;SDS011;71676;50.998;7.098;2023-07-29T05:38:35;5.78;;;2.67;;
76284;SDS011;71676;50.998;7.098;2023-07-29T05:41:03;7.70;;;2.70;;
76284;SDS011;71676;50.998;7.098;2023-07-29T05:43:29;7.68;;;3.30;;
76284;SDS011;71676;50.998;7.098;2023-07-29T05:45:56;5.15;;;2.30;;
76284;SDS011;71676;50.998;7.098;2023-07-29T05:48:22;5.03;;;2.65;;
76284;SDS011;71676;50.998;7.098;2023-07-29T05:50:49;6.50;;;2.78;;
76284;SDS011;71676;50.998;7.098;2023-07-29T05:53:16;7.80;;;2.85;;
76284;SDS011;71676;50.998;7.098;2023-07-29T05:55:42;6.53;;;3.00;;
76284;SDS011;71676;50.998;7.098;2023-07-29T05:58:10;6.57;;;2.90;;
76284;SDS011;71676;50.998;7.098;2023-07-29T06:00:37;6.93;;;2.90;;
76284;SDS011;71676;50.998;7.098;2023-07-29T06:03:04;7.40;;;3.53;;
76284;SDS011;71676;50.998;7.098;2023-07-29T06:05:30;8.85;;;3.10;;
76284;SDS011;71676;50.998;7.098;2023-07-29T06:07:57;6.50;;;3.42;;
76284;SDS011;71676;50.998;7.098;2023-07-29T06:10:26;8.95;;;4.03;;
76284;SDS011;71676;50.998;7.098;2023-07-29T06:12:53;7.75;;;3.78;;
76284;SDS011;71676;50.998;7.098;2023-07-29T06:15:21;6.72;;;3.47;;
76284;SDS011;71676;50.998;7.098;2023-07-29T06:17:48;7.65;;;3.55;;
76284;SDS011;71676;50.998;7.098;2023-07-29T06:20:14;8.27;;;3.67;;
76284;SDS011;71676;50.998;7.098;2023-07-29T06:22:41;6.68;;;3.67;;
76284;SDS011;71676;50.998;7.098;2023-07-29T06:25:08;6.32;;;3.45;;
76284;SDS011;71676;50.998;7.098;2023-07-29T06:27:35;8.25;;;3.85;;
76284;SDS011;71676;50.998;7.098;2023-07-29T06:30:02;7.80;;;3.90;;
76284;SDS011;71676;50.998;7.098;2023-07-29T06:32:30;6.60;;;3.08;;
76284;SDS011;71676;50.998;7.098;2023-07-29T06:34:57;7.60;;;3.55;;
76284;SDS011;71676;50.998;7.098;2023-07-29T06:37:24;6.60;;;3.30;;
76284;SDS011;71676;50.998;7.098;2023-07-29T06:39:50;6.45;;;3.17;;
76284;SDS011;71676;50.998;7.098;2023-07-29T06:42:17;6.78;;;2.90;;
76284;SDS011;71676;50.998;7.098;2023-07-29T06:44:43;7.30;;;2.88;;
76284;SDS011;71676;50.998;7.098;2023-07-29T06:47:11;7.03;;;2.90;;
76284;SDS011;71676;50.998;7.098;2023-07-29T06:49:39;8.70;;;3.10;;
76284;SDS011;71676;50.998;7.098;2023-07-29T06:52:06;4.97;;;2.53;;
76284;SDS011;71676;50.998;7.098;2023-07-29T06:54:33;9.38;;;2.78;;
76284;SDS011;71676;50.998;7.098;2023-07-29T06:56:59;5.38;;;2.72;;
76284;SDS011;71676;50.998;7.098;2023-07-29T06:59:26;9.63;;;3.03;;
76284;SDS011;71676;50.998;7.098;2023-07-29T07:01:53;7.30;;;2.85;;
76284;SDS011;71676;50.998;7.098;2023-07-29T07:04:19;6.22;;;2.50;;
76284;SDS011;71676;50.998;7.098;2023-07-29T07:06:50;5.22;;;2.53;;
76284;SDS011;71676;50.998;7.098;2023-07-29T07:09:16;6.00;;;2.33;;
76284;SDS011;71676;50.998;7.098;2023-07-29T07:11:43;4.57;;;2.33;;
76284;SDS011;71676;50.998;7.098;2023-07-29T07:14:10;5.70;;;2.35;;
76284;SDS011;71676;50.998;7.098;2023-07-29T07:16:36;6.30;;;2.70;;
76284;SDS011;71676;50.998;7.098;2023-07-29T07:19:04;7.30;;;2.50;;
76284;SDS011;71676;50.998;7.098;2023-07-29T07:21:31;5.20;;;2.22;;
76284;SDS011;71676;50.998;7.098;2023-07-29T07:23:59;6.30;;;2.20;;
76284;SDS011;71676;50.998;7.098;2023-07-29T07:26:26;7.75;;;2.40;;
76284;SDS011;71676;50.998;7.098;2023-07-29T07:28:53;5.32;;;2.03;;
76284;SDS011;71676;50.998;7.098;2023-07-29T07:31:19;4.53;;;1.60;;
76284;SDS011;71676;50.998;7.098;2023-07-29T07:33:46;3.05;;;1.65;;
76284;SDS011;71676;50.998;7.098;2023-07-29T07:36:13;4.65;;;1.65;;
76284;SDS011;71676;50.998;7.098;2023-07-29T07:38:40;3.85;;;1.65;;
76284;SDS011;71676;50.998;7.098;2023-07-29T07:41:08;3.75;;;1.65;;
76284;SDS011;71676;50.998;7.098;2023-07-29T07:43:35;3.40;;;1.55;;
76284;SDS011;71676;50.998;7.098;2023-07-29T07:46:02;5.75;;;1.95;;
76284;SDS011;71676;50.998;7.098;2023-07-29T07:48:29;5.53;;;1.83;;
76284;SDS011;71676;50.998;7.098;2023-07-29T07:50:58;4.35;;;1.83;;
76284;SDS011;71676;50.998;7.098;2023-07-29T07:53:24;6.47;;;2.10;;
76284;SDS011;71676;50.998;7.098;2023-07-29T07:55:51;5.97;;;1.83;;
76284;SDS011;71676;50.998;7.098;2023-07-29T07:58:19;5.97;;;2.13;;
76284;SDS011;71676;50.998;7.098;2023-07-29T08:00:46;4.57;;;2.05;;
76284;SDS011;71676;50.998;7.098;2023-07-29T08:03:12;3.38;;;1.92;;
76284;SDS011;71676;50.998;7.098;2023-07-29T08:05:39;5.20;;;2.40;;
76284;SDS011;71676;50.998;7.098;2023-07-29T08:08:06;5.65;;;2.40;;
76284;SDS011;71676;50.998;7.098;2023-07-29T08:10:32;5.53;;;2.30;;
76284;SDS011;71676;50.998;7.098;2023-07-29T08:12:59;4.78;;;2.15;;
76284;SDS011;71676;50.998;7.098;2023-07-29T08:15:27;3.75;;;2.00;;
76284;SDS011;71676;50.998;7.098;2023-07-29T08:17:53;6.47;;;2.10;;
76284;SDS011;71676;50.998;7.098;2023-07-29T08:20:20;4.70;;;2.00;;
76284;SDS011;71676;50.998;7.098;2023-07-29T08:22:47;4.63;;;1.83;;
76284;SDS011;71676;50.998;7.098;2023-07-29T08:25:13;4.90;;;1.85;;
76284;SDS011;71676;50.998;7.098;2023-07-29T08:27:40;4.72;;;2.08;;
76284;SDS011;71676;50.998;7.098;2023-07-29T08:30:07;4.20;;;1.85;;
76284;SDS011;71676;50.998;7.098;2023-07-29T08:32:36;6.70;;;1.60;;
76284;SDS011;71676;50.998;7.098;2023-07-29T08:35:02;4.45;;;1.60;;
76284;SDS011;71676;50.998;7.098;2023-07-29T08:37:29;3.30;;;1.77;;
76284;SDS011;71676;50.998;7.098;2023-07-29T08:39:56;3.75;;;1.60;;
76284;SDS011;71676;50.998;7.098;2023-07-29T08:42:23;4.00;;;1.70;;
76284;SDS011;71676;50.998;7.098;2023-07-29T08:44:55;5.72;;;2.40;;
76284;SDS011;71676;50.998;7.098;2023-07-29T08:47:23;5.57;;;2.70;;
76284;SDS011;71676;50.998;7.098;2023-07-29T08:49:51;3.80;;;2.22;;
76284;SDS011;71676;50.998;7.098;2023-07-29T08:52:19;4.07;;;2.00;;
76284;SDS011;71676;50.998;7.098;2023-07-29T08:54:46;7.05;;;2.40;;
76284;SDS011;71676;50.998;7.098;2023-07-29T08:57:13;4.47;;;2.00;;
76284;SDS011;71676;50.998;7.098;2023-07-29T08:59:40;3.63;;;2.10;;
76284;SDS011;71676;50.998;7.098;2023-07-29T09:02:08;4.22;;;1.80;;
76284;SDS011;71676;50.998;7.098;2023-07-29T09:04:34;3.15;;;1.63;;
76284;SDS011;71676;50.998;7.098;2023-07-29T09:07:02;5.97;;;2.03;;
76284;SDS011;71676;50.998;7.098;2023-07-29T09:09:31;4.03;;;1.70;;
76284;SDS011;71676;50.998;7.098;2023-07-29T09:11:58;4.80;;;1.85;;
76284;SDS011;71676;50.998;7.098;2023-07-29T09:14:25;2.38;;;1.40;;
76284;SDS011;71676;50.998;7.098;2023-07-29T09:16:52;4.05;;;1.40;;
76284;SDS011;71676;50.998;7.098;2023-07-29T09:19:19;2.95;;;1.40;;
76284;SDS011;71676;50.998;7.098;2023-07-29T09:21:46;4.00;;;1.60;;
76284;SDS011;71676;50.998;7.098;2023-07-29T09:24:16;3.17;;;1.50;;
76284;SDS011;71676;50.998;7.098;2023-07-29T09:26:48;5.63;;;1.70;;
76284;SDS011;71676;50.998;7.098;2023-07-29T09:31:42;4.22;;;1.83;;
76284;SDS011;71676;50.998;7.098;2023-07-29T09:34:08;5.15;;;1.45;;
76284;SDS011;71676;50.998;7.098;2023-07-29T09:36:35;3.38;;;1.58;;
76284;SDS011;71676;50.998;7.098;2023-07-29T09:39:02;3.90;;;1.90;;
76284;SDS011;71676;50.998;7.098;2023-07-29T09:41:31;4.40;;;1.70;;
76284;SDS011;71676;50.998;7.098;2023-07-29T09:43:58;3.13;;;1.67;;
76284;SDS011;71676;50.998;7.098;2023-07-29T09:46:31;5.78;;;1.80;;
76284;SDS011;71676;50.998;7.098;2023-07-29T09:48:58;3.25;;;1.60;;
76284;SDS011;71676;50.998;7.098;2023-07-29T09:51:25;3.60;;;1.50;;
76284;SDS011;71676;50.998;7.098;2023-07-29T09:53:52;4.22;;;1.63;;
76284;SDS011;71676;50.998;7.098;2023-07-29T09:56:25;3.78;;;1.55;;
76284;SDS011;71676;50.998;7.098;2023-07-29T09:58:54;2.92;;;1.55;;
76284;SDS011;71676;50.998;7.098;2023-07-29T10:01:22;4.20;;;1.40;;
76284;SDS011;71676;50.998;7.098;2023-07-29T10:03:50;2.65;;;1.20;;
76284;SDS011;71676;50.998;7.098;2023-07-29T10:06:17;2.58;;;1.35;;
76284;SDS011;71676;50.998;7.098;2023-07-29T10:08:44;2.63;;;1.20;;
76284;SDS011;71676;50.998;7.098;2023-07-29T10:11:11;2.65;;;1.58;;
76284;SDS011;71676;50.998;7.098;2023-07-29T10:13:38;3.33;;;1.50;;
76284;SDS011;71676;50.998;7.098;2023-07-29T10:16:06;1.95;;;1.33;;
76284;SDS011;71676;50.998;7.098;2023-07-29T10:18:33;4.40;;;1.60;;
76284;SDS011;71676;50.998;7.098;2023-07-29T10:21:01;3.33;;;1.65;;
76284;SDS011;71676;50.998;7.098;2023-07-29T10:23:31;4.25;;;1.90;;
76284;SDS011;71676;50.998;7.098;2023-07-29T10:26:02;6.80;;;1.70;;
76284;SDS011;71676;50.998;7.098;2023-07-29T10:28:30;4.30;;;1.67;;
76284;SDS011;71676;50.998;7.098;2023-07-29T10:30:58;4.93;;;2.00;;
76284;SDS011;71676;50.998;7.098;2023-07-29T10:33:27;3.00;;;1.45;;
76284;SDS011;71676;50.998;7.098;2023-07-29T10:35:53;2.95;;;1.40;;
76284;SDS011;71676;50.998;7.098;2023-07-29T10:38:23;3.45;;;1.60;;
76284;SDS011;71676;50.998;7.098;2023-07-29T10:40:51;3.70;;;1.40;;
76284;SDS011;71676;50.998;7.098;2023-07-29T10:43:24;4.88;;;1.65;;
76284;SDS011;71676;50.998;7.098;2023-07-29T10:45:52;3.92;;;1.40;;
76284;SDS011;71676;50.998;7.098;2023-07-29T10:51:26;3.33;;;1.67;;
76284;SDS011;71676;50.998;7.098;2023-07-29T10:53:55;3.83;;;1.70;;
76284;SDS011;71676;50.998;7.098;2023-07-29T10:56:26;3.75;;;1.70;;
76284;SDS011;71676;50.998;7.098;2023-07-29T10:58:58;3.83;;;1.48;;
76284;SDS011;71676;50.998;7.098;2023-07-29T11:01:29;3.25;;;1.65;;
76284;SDS011;71676;50.998;7.098;2023-07-29T11:09:53;3.88;;;1.35;;
76284;SDS011;71676;50.998;7.098;2023-07-29T11:12:34;3.28;;;1.38;;
76284;SDS011;71676;50.998;7.098;2023-07-29T11:15:06;2.47;;;1.40;;
76284;SDS011;71676;50.998;7.098;2023-07-29T11:17:39;3.88;;;1.40;;
76284;SDS011;71676;50.998;7.098;2023-07-29T11:20:09;3.72;;;1.40;;
76284;SDS011;71676;50.998;7.098;2023-07-29T11:22:37;5.50;;;1.42;;
76284;SDS011;71676;50.998;7.098;2023-07-29T11:25:04;3.15;;;1.50;;
76284;SDS011;71676;50.998;7.098;2023-07-29T11:27:33;5.00;;;2.30;;
76284;SDS011;71676;50.998;7.098;2023-07-29T11:30:00;4.10;;;1.80;;
76284;SDS011;71676;50.998;7.098;2023-07-29T11:32:30;4.38;;;1.70;;
76284;SDS011;71676;50.998;7.098;2023-07-29T11:35:01;2.75;;;1.50;;
76284;SDS011;71676;50.998;7.098;2023-07-29T11:37:30;4.82;;;1.40;;
76284;SDS011;71676;50.998;7.098;2023-07-29T11:39:56;3.78;;;1.48;;
76284;SDS011;71676;50.998;7.098;2023-07-29T11:42:24;3.13;;;1.60;;
76284;SDS011;71676;50.998;7.098;2023-07-29T11:44:52;3.35;;;1.60;;
76284;SDS011;71676;50.998;7.098;2023-07-29T11:47:18;3.45;;;1.73;;
76284;SDS011;71676;50.998;7.098;2023-07-29T11:49:45;3.90;;;1.60;;
76284;SDS011;71676;50.998;7.098;2023-07-29T11:52:12;4.60;;;1.80;;
76284;SDS011;71676;50.998;7.098;2023-07-29T11:54:40;3.88;;;1.73;;
76284;SDS011;71676;50.998;7.098;2023-07-29T11:57:07;5.25;;;2.10;;
76284;SDS011;71676;50.998;7.098;2023-07-29T11:59:34;4.85;;;1.77;;
76284;SDS011;71676;50.998;7.098;2023-07-29T12:02:02;4.80;;;1.52;;
76284;SDS011;71676;50.998;7.098;2023-07-29T12:04:34;3.42;;;1.60;;
76284;SDS011;71676;50.998;7.098;2023-07-29T12:07:02;3.25;;;1.70;;
76284;SDS011;71676;50.998;7.098;2023-07-29T12:09:29;3.55;;;1.60;;
76284;SDS011;71676;50.998;7.098;2023-07-29T12:11:58;2.78;;;1.60;;
76284;SDS011;71676;50.998;7.098;2023-07-29T12:14:25;3.38;;;1.55;;
76284;SDS011;71676;50.998;7.098;2023-07-29T12:16:52;3.00;;;1.30;;
76284;SDS011;71676;50.998;7.098;2023-07-29T12:19:19;3.33;;;1.40;;
76284;SDS011;71676;50.998;7.098;2023-07-29T12:21:47;5.70;;;1.67;;
76284;SDS011;71676;50.998;7.098;2023-07-29T12:24:14;4.75;;;1.50;;
76284;SDS011;71676;50.998;7.098;2023-07-29T12:26:41;4.50;;;1.77;;
76284;SDS011;71676;50.998;7.098;2023-07-29T12:29:13;3.13;;;1.60;;
76284;SDS011;71676;50.998;7.098;2023-07-29T12:31:39;3.22;;;1.52;;
76284;SDS011;71676;50.998;7.098;2023-07-29T12:34:06;4.65;;;1.40;;
76284;SDS011;71676;50.998;7.098;2023-07-29T12:36:43;3.08;;;1.42;;
76284;SDS011;71676;50.998;7.098;2023-07-29T12:39:19;3.20;;;1.67;;
76284;SDS011;71676;50.998;7.098;2023-07-29T12:41:48;2.92;;;1.60;;
76284;SDS011;71676;50.998;7.098;2023-07-29T12:44:16;3.75;;;1.52;;
76284;SDS011;71676;50.998;7.098;2023-07-29T12:46:43;3.28;;;1.60;;
76284;SDS011;71676;50.998;7.098;2023-07-29T12:49:10;2.03;;;1.40;;
76284;SDS011;71676;50.998;7.098;2023-07-29T12:51:37;2.58;;;1.48;;
76284;SDS011;71676;50.998;7.098;2023-07-29T12:54:04;3.25;;;1.27;;
76284;SDS011;71676;50.998;7.098;2023-07-29T12:56:31;3.05;;;1.50;;
76284;SDS011;71676;50.998;7.098;2023-07-29T12:58:58;5.55;;;1.65;;
76284;SDS011;71676;50.998;7.098;2023-07-29T13:01:26;2.03;;;1.30;;
76284;SDS011;71676;50.998;7.098;2023-07-29T13:03:54;2.75;;;1.48;;
76284;SDS011;71676;50.998;7.098;2023-07-29T13:06:21;2.17;;;1.40;;
76284;SDS011;71676;50.998;7.098;2023-07-29T13:08:48;2.55;;;1.27;;
76284;SDS011;71676;50.998;7.098;2023-07-29T13:11:15;2.40;;;1.38;;
76284;SDS011;71676;50.998;7.098;2023-07-29T13:13:42;2.92;;;1.50;;
76284;SDS011;71676;50.998;7.098;2023-07-29T13:16:10;2.60;;;1.33;;
76284;SDS011;71676;50.998;7.098;2023-07-29T13:18:41;3.45;;;1.48;;
76284;SDS011;71676;50.998;7.098;2023-07-29T13:21:09;3.33;;;1.40;;
76284;SDS011;71676;50.998;7.098;2023-07-29T13:23:36;2.90;;;1.60;;
76284;SDS011;71676;50.998;7.098;2023-07-29T13:26:02;2.05;;;1.30;;
76284;SDS011;71676;50.998;7.098;2023-07-29T13:28:29;3.70;;;1.40;;
76284;SDS011;71676;50.998;7.098;2023-07-29T13:30:56;2.85;;;1.40;;
76284;SDS011;71676;50.998;7.098;2023-07-29T13:33:22;2.97;;;1.50;;
76284;SDS011;71676;50.998;7.098;2023-07-29T13:35:50;2.92;;;1.40;;
76284;SDS011;71676;50.998;7.098;2023-07-29T13:38:17;3.25;;;1.45;;
76284;SDS011;71676;50.998;7.098;2023-07-29T13:40:45;3.05;;;1.40;;
76284;SDS011;71676;50.998;7.098;2023-07-29T13:43:11;4.13;;;1.80;;
76284;SDS011;71676;50.998;7.098;2023-07-29T13:45:38;2.72;;;1.40;;
76284;SDS011;71676;50.998;7.098;2023-07-29T13:48:05;4.53;;;1.75;;
76284;SDS011;71676;50.998;7.098;2023-07-29T13:50:31;5.20;;;1.70;;
76284;SDS011;71676;50.998;7.098;2023-07-29T13:52:59;3.17;;;1.67;;
76284;SDS011;71676;50.998;7.098;2023-07-29T13:55:26;5.43;;;1.95;;
76284;SDS011;71676;50.998;7.098;2023-07-29T13:57:52;4.22;;;1.77;;
76284;SDS011;71676;50.998;7.098;2023-07-29T14:00:20;4.13;;;1.60;;
76284;SDS011;71676;50.998;7.098;2023-07-29T14:02:46;6.40;;;2.03;;
76284;SDS011;71676;50.998;7.098;2023-07-29T14:05:13;5.43;;;2.05;;
76284;SDS011;71676;50.998;7.098;2023-07-29T14:07:40;4.25;;;1.73;;
76284;SDS011;71676;50.998;7.098;2023-07-29T14:10:08;3.70;;;1.60;;
76284;SDS011;71676;50.998;7.098;2023-07-29T14:12:35;4.45;;;1.90;;
76284;SDS011;71676;50.998;7.098;2023-07-29T14:15:02;4.82;;;2.10;;
76284;SDS011;71676;50.998;7.098;2023-07-29T14:17:30;5.70;;;1.80;;
76284;SDS011;71676;50.998;7.098;2023-07-29T14:19:57;5.05;;;1.90;;
76284;SDS011;71676;50.998;7.098;2023-07-29T14:22:23;5.65;;;2.00;;
76284;SDS011;71676;50.998;7.098;2023-07-29T14:24:50;5.68;;;2.50;;
76284;SDS011;71676;50.998;7.098;2023-07-29T14:27:18;4.78;;;2.05;;
76284;SDS011;71676;50.998;7.098;2023-07-29T14:29:45;5.53;;;1.88;;
76284;SDS011;71676;50.998;7.098;2023-07-29T14:32:11;5.25;;;2.00;;
76284;SDS011;71676;50.998;7.098;2023-07-29T14:34:38;4.90;;;1.85;;
76284;SDS011;71676;50.998;7.098;2023-07-29T14:37:05;6.93;;;1.80;;
76284;SDS011;71676;50.998;7.098;2023-07-29T14:39:31;4.18;;;1.85;;
76284;SDS011;71676;50.998;7.098;2023-07-29T14:41:58;4.65;;;2.10;;
76284;SDS011;71676;50.998;7.098;2023-07-29T14:44:26;4.43;;;1.90;;
76284;SDS011;71676;50.998;7.098;2023-07-29T14:46:53;3.95;;;1.60;;
76284;SDS011;71676;50.998;7.098;2023-07-29T14:49:20;4.93;;;1.95;;
76284;SDS011;71676;50.998;7.098;2023-07-29T14:51:47;4.38;;;1.75;;
76284;SDS011;71676;50.998;7.098;2023-07-29T14:54:13;4.15;;;1.67;;
76284;SDS011;71676;50.998;7.098;2023-07-29T14:56:40;4.43;;;1.73;;
76284;SDS011;71676;50.998;7.098;2023-07-29T14:59:06;4.35;;;1.70;;
76284;SDS011;71676;50.998;7.098;2023-07-29T15:01:35;3.78;;;1.80;;
76284;SDS011;71676;50.998;7.098;2023-07-29T15:04:02;4.47;;;2.17;;